createdAt,value
2019-03-01T00:00:47.993Z,16.85
2019-03-01T00:03:15.967Z,17.08
2019-03-01T00:05:53.106Z,17.58
2019-03-01T00:08:23.876Z,16.70
2019-03-01T00:11:17.758Z,18.40
2019-03-01T00:13:53.656Z,19.65
2019-03-01T00:16:30.167Z,19.00
2019-03-01T00:19:26.431Z,21.20
2019-03-01T00:22:02.186Z,20.35
2019-03-01T00:24:44.170Z,20.83
2019-03-01T00:27:23.799Z,19.20
2019-03-01T00:30:11.715Z,20.12
2019-03-01T00:32:45.750Z,19.83
2019-03-01T00:35:35.544Z,19.10
2019-03-01T00:38:22.874Z,20.02
2019-03-01T00:41:16.112Z,20.45
2019-03-01T00:43:59.517Z,21.35
2019-03-01T00:46:27.596Z,22.23
2019-03-01T00:48:55.374Z,20.60
2019-03-01T00:51:23.448Z,21.85
2019-03-01T00:53:51.542Z,21.02
2019-03-01T00:56:19.603Z,19.98
2019-03-01T00:58:48.152Z,19.48
2019-03-01T01:01:16.250Z,20.92
2019-03-01T01:03:44.337Z,21.77
2019-03-01T01:06:12.501Z,21.27
2019-03-01T01:08:40.655Z,21.48
2019-03-01T01:11:08.533Z,20.37
2019-03-01T01:13:36.696Z,22.90
2019-03-01T01:16:04.798Z,23.08
2019-03-01T01:18:32.326Z,23.73
2019-03-01T01:21:00.452Z,23.33
2019-03-01T01:23:28.587Z,24.83
2019-03-01T01:25:57.060Z,25.25
2019-03-01T01:28:25.673Z,25.73
2019-03-01T01:30:53.500Z,25.95
2019-03-01T01:33:21.578Z,24.65
2019-03-01T01:35:49.676Z,23.60
2019-03-01T01:38:17.763Z,23.25
2019-03-01T01:40:45.889Z,26.02
2019-03-01T01:43:13.966Z,23.98
2019-03-01T01:45:42.043Z,27.65
2019-03-01T01:48:10.123Z,29.05
2019-03-01T01:50:37.920Z,28.52
2019-03-01T01:53:06.046Z,31.17
2019-03-01T01:55:34.118Z,32.13
2019-03-01T01:58:02.209Z,31.15
2019-03-01T02:00:31.263Z,32.60
2019-03-01T02:02:59.043Z,31.80
2019-03-01T02:05:27.490Z,32.58
2019-03-01T02:07:55.501Z,33.10
2019-03-01T02:10:23.356Z,33.38
2019-03-01T02:12:51.733Z,33.33
2019-03-01T02:15:19.818Z,33.17
2019-03-01T02:17:49.114Z,35.85
2019-03-01T02:20:17.406Z,38.35
2019-03-01T02:22:46.734Z,38.92
2019-03-01T02:25:15.325Z,37.63
2019-03-01T02:27:47.579Z,45.95
2019-03-01T02:30:18.951Z,50.35
2019-03-01T02:32:48.930Z,51.70
2019-03-01T02:35:20.057Z,51.08
2019-03-01T02:37:47.858Z,64.93
2019-03-01T02:40:16.000Z,59.85
2019-03-01T02:42:44.369Z,66.93
2019-03-01T02:45:13.383Z,69.32
2019-03-01T02:47:41.415Z,72.50
2019-03-01T02:50:09.883Z,67.97
2019-03-01T02:52:38.011Z,76.03
2019-03-01T02:55:05.912Z,75.20
2019-03-01T02:57:34.867Z,76.78
2019-03-01T03:00:03.008Z,74.05
2019-03-01T03:02:30.797Z,74.97
2019-03-01T03:04:58.619Z,80.38
2019-03-01T03:07:40.993Z,79.65
2019-03-01T03:10:08.960Z,77.12
2019-03-01T03:12:37.311Z,75.47
2019-03-01T03:15:06.490Z,81.50
2019-03-01T03:17:34.847Z,81.80
2019-03-01T03:20:02.921Z,86.45
2019-03-01T03:22:31.020Z,84.78
2019-03-01T03:24:59.198Z,77.70
2019-03-01T03:27:27.353Z,65.55
2019-03-01T03:29:56.143Z,59.40
2019-03-01T03:32:24.334Z,59.03
2019-03-01T03:34:52.094Z,57.25
2019-03-01T03:37:20.154Z,51.33
2019-03-01T03:39:48.516Z,52.83
2019-03-01T03:42:16.685Z,50.90
2019-03-01T03:44:45.325Z,48.22
2019-03-01T03:47:13.903Z,46.58
2019-03-01T03:49:42.057Z,48.30
2019-03-01T03:52:10.616Z,47.28
2019-03-01T03:54:39.271Z,44.20
2019-03-01T03:57:07.187Z,48.17
2019-03-01T03:59:35.052Z,46.25
2019-03-01T04:02:03.147Z,44.33
2019-03-01T04:04:31.218Z,41.80
2019-03-01T04:06:59.379Z,43.95
2019-03-01T04:09:28.175Z,41.33
2019-03-01T04:11:56.242Z,41.95
2019-03-01T04:14:24.093Z,40.28
2019-03-01T04:16:52.783Z,43.70
2019-03-01T04:19:20.630Z,42.00
2019-03-01T04:21:48.453Z,42.13
2019-03-01T04:24:16.620Z,44.38
2019-03-01T04:26:44.742Z,47.72
2019-03-01T04:29:13.097Z,44.63
2019-03-01T04:31:42.448Z,45.40
2019-03-01T04:34:10.620Z,46.70
2019-03-01T04:36:38.731Z,47.38
2019-03-01T04:39:07.404Z,46.42
2019-03-01T04:41:35.513Z,47.83
2019-03-01T04:44:03.597Z,49.30
2019-03-01T04:46:31.957Z,44.15
2019-03-01T04:49:00.054Z,48.30
2019-03-01T04:51:27.930Z,49.13
2019-03-01T04:53:56.290Z,48.13
2019-03-01T04:56:24.488Z,46.30
2019-03-01T04:58:52.742Z,50.58
2019-03-01T05:01:20.930Z,49.50
2019-03-01T05:03:50.429Z,52.95
2019-03-01T05:06:18.563Z,51.92
2019-03-01T05:08:46.579Z,49.33
2019-03-01T05:11:17.416Z,55.03
2019-03-01T05:13:47.092Z,56.63
2019-03-01T05:16:15.431Z,52.28
2019-03-01T05:18:43.571Z,56.00
2019-03-01T05:21:11.636Z,53.42
2019-03-01T05:23:39.897Z,53.80
2019-03-01T05:26:07.954Z,54.30
2019-03-01T05:28:35.855Z,51.17
2019-03-01T05:31:03.934Z,51.28
2019-03-01T05:33:32.406Z,48.05
2019-03-01T05:36:00.449Z,47.50
2019-03-01T05:38:28.854Z,49.47
2019-03-01T05:40:56.930Z,50.28
2019-03-01T05:43:24.485Z,47.58
2019-03-01T05:45:52.841Z,50.63
2019-03-01T05:48:20.959Z,48.45
2019-03-01T05:50:49.207Z,45.65
2019-03-01T05:53:17.930Z,48.40
2019-03-01T05:55:46.054Z,48.50
2019-03-01T05:58:35.939Z,47.70
2019-03-01T06:01:38.509Z,46.17
2019-03-01T06:04:14.905Z,45.75
2019-03-01T06:07:04.987Z,47.40
2019-03-01T06:09:39.285Z,48.15
2019-03-01T06:12:12.702Z,49.08
2019-03-01T06:15:05.942Z,50.40
2019-03-01T06:17:45.111Z,52.50
2019-03-01T06:20:38.465Z,49.35
2019-03-01T06:23:27.680Z,49.58
2019-03-01T06:26:10.315Z,50.40
2019-03-01T06:28:57.593Z,50.08
2019-03-01T06:31:44.011Z,52.65
2019-03-01T06:34:28.284Z,50.70
2019-03-01T06:37:02.501Z,51.05
2019-03-01T06:40:17.537Z,54.47
2019-03-01T06:42:53.855Z,52.58
2019-03-01T06:45:32.137Z,53.60
2019-03-01T06:47:59.601Z,55.65
2019-03-01T06:50:46.914Z,52.22
2019-03-01T06:53:15.329Z,53.15
2019-03-01T06:55:44.421Z,57.17
2019-03-01T06:58:14.046Z,52.92
2019-03-01T07:00:50.158Z,52.45
2019-03-01T07:03:13.248Z,55.25
2019-03-01T07:05:40.983Z,53.22
2019-03-01T07:08:09.108Z,54.40
2019-03-01T07:10:37.276Z,55.42
2019-03-01T07:13:05.224Z,55.78
2019-03-01T07:15:33.683Z,57.00
2019-03-01T07:18:01.551Z,55.63
2019-03-01T07:20:30.174Z,64.80
2019-03-01T07:22:58.867Z,59.75
2019-03-01T07:25:26.648Z,60.97
2019-03-01T07:27:54.656Z,63.30
2019-03-01T07:30:22.748Z,63.03
2019-03-01T07:32:50.600Z,65.25
2019-03-01T07:35:18.393Z,65.20
2019-03-01T07:37:47.751Z,67.10
2019-03-01T07:40:15.835Z,67.70
2019-03-01T07:42:43.697Z,63.45
2019-03-01T07:45:12.086Z,66.22
2019-03-01T07:47:40.239Z,65.40
2019-03-01T07:50:08.113Z,62.85
2019-03-01T07:52:36.206Z,61.37
2019-03-01T07:55:04.355Z,58.17
2019-03-01T07:57:32.358Z,63.10
2019-03-01T08:00:00.538Z,57.72
2019-03-01T08:02:28.394Z,58.92
2019-03-01T08:04:56.467Z,57.72
2019-03-01T08:07:24.909Z,60.47
2019-03-01T08:09:54.222Z,57.62
2019-03-01T08:12:20.878Z,56.85
2019-03-01T08:14:49.125Z,54.67
2019-03-01T08:17:17.305Z,56.90
2019-03-01T08:19:45.764Z,53.47
2019-03-01T08:22:13.038Z,54.28
2019-03-01T08:24:42.843Z,51.70
2019-03-01T08:27:09.919Z,48.58
2019-03-01T08:29:36.648Z,44.30
2019-03-01T08:32:04.728Z,39.72
2019-03-01T08:34:32.580Z,33.00
2019-03-01T08:37:00.781Z,30.90
2019-03-01T08:39:29.748Z,24.20
2019-03-01T08:42:01.235Z,11.30
2019-03-01T08:44:26.502Z,17.52
2019-03-01T08:46:54.074Z,15.30
2019-03-01T08:49:22.249Z,14.00
2019-03-01T08:51:50.707Z,13.95
2019-03-01T08:54:18.783Z,10.88
2019-03-01T08:56:50.307Z,10.60
2019-03-01T08:59:17.469Z,6.87
2019-03-01T09:01:45.085Z,9.98
2019-03-01T09:04:14.216Z,6.75
2019-03-01T09:06:41.942Z,8.35
2019-03-01T09:09:10.337Z,8.15
2019-03-01T09:11:41.796Z,9.63
2019-03-01T09:14:09.211Z,8.20
2019-03-01T09:16:37.364Z,6.03
2019-03-01T09:19:04.790Z,10.50
2019-03-01T09:21:33.538Z,6.20
2019-03-01T09:24:01.689Z,8.02
2019-03-01T09:26:29.837Z,10.30
2019-03-01T09:28:58.742Z,8.15
2019-03-01T09:31:28.329Z,8.30
2019-03-01T09:33:56.574Z,4.10
2019-03-01T09:36:31.847Z,6.15
2019-03-01T09:39:01.080Z,7.00
2019-03-01T09:41:30.187Z,6.30
2019-03-01T09:43:59.675Z,6.82
2019-03-01T09:46:28.278Z,9.05
2019-03-01T09:48:55.096Z,6.22
2019-03-01T09:51:25.410Z,6.75
2019-03-01T09:53:54.181Z,11.50
2019-03-01T09:56:24.314Z,8.10
2019-03-01T09:58:50.468Z,6.93
2019-03-01T10:01:19.521Z,5.62
2019-03-01T10:03:47.999Z,6.18
2019-03-01T10:06:16.096Z,3.58
2019-03-01T10:08:44.269Z,6.12
2019-03-01T10:11:14.998Z,4.10
2019-03-01T10:13:43.480Z,4.75
2019-03-01T10:16:11.640Z,4.65
2019-03-01T10:18:39.734Z,5.53
2019-03-01T10:21:07.591Z,5.97
2019-03-01T10:23:35.330Z,5.40
2019-03-01T10:26:03.716Z,6.12
2019-03-01T10:28:31.988Z,7.07
2019-03-01T10:31:00.162Z,5.95
2019-03-01T10:33:28.761Z,6.87
2019-03-01T10:35:56.631Z,5.95
2019-03-01T10:38:24.693Z,5.78
2019-03-01T10:40:52.861Z,6.43
2019-03-01T10:43:20.777Z,6.07
2019-03-01T10:45:49.068Z,6.12
2019-03-01T10:48:17.191Z,6.10
2019-03-01T10:50:46.431Z,6.60
2019-03-01T10:53:14.502Z,6.12
2019-03-01T10:55:42.481Z,4.78
2019-03-01T10:58:10.224Z,4.62
2019-03-01T11:00:38.191Z,4.75
2019-03-01T11:03:06.220Z,6.25
2019-03-01T11:05:33.702Z,5.18
2019-03-01T11:08:01.647Z,6.03
2019-03-01T11:10:30.853Z,5.62
2019-03-01T11:12:58.874Z,6.25
2019-03-01T11:15:26.369Z,7.82
2019-03-01T11:17:54.167Z,8.13
2019-03-01T11:20:22.566Z,7.72
2019-03-01T11:22:50.906Z,8.10
2019-03-01T11:25:19.063Z,6.90
2019-03-01T11:27:47.664Z,7.15
2019-03-01T11:30:20.431Z,6.55
2019-03-01T11:32:48.562Z,7.53
2019-03-01T11:35:16.924Z,6.78
2019-03-01T11:37:45.080Z,6.22
2019-03-01T11:40:14.503Z,6.30
2019-03-01T11:42:43.233Z,6.37
2019-03-01T11:45:12.142Z,5.53
2019-03-01T11:47:40.328Z,5.37
2019-03-01T11:50:10.021Z,6.18
2019-03-01T11:52:38.511Z,5.65
2019-03-01T11:55:06.587Z,5.90
2019-03-01T11:57:34.642Z,4.97
2019-03-01T12:00:02.150Z,5.60
2019-03-01T12:02:30.544Z,5.03
2019-03-01T12:04:58.767Z,5.35
2019-03-01T12:07:26.929Z,5.43
2019-03-01T12:09:54.773Z,4.75
2019-03-01T12:12:23.169Z,5.45
2019-03-01T12:14:51.240Z,4.30
2019-03-01T12:17:19.390Z,4.47
2019-03-01T12:19:47.798Z,4.12
2019-03-01T12:22:17.379Z,3.37
2019-03-01T12:24:44.053Z,5.07
2019-03-01T12:27:13.339Z,4.03
2019-03-01T12:29:42.006Z,3.92
2019-03-01T12:32:10.678Z,4.28
2019-03-01T12:34:39.632Z,3.65
2019-03-01T12:37:08.109Z,4.22
2019-03-01T12:39:36.098Z,4.07
2019-03-01T12:42:05.201Z,4.10
2019-03-01T12:44:33.497Z,4.00
2019-03-01T12:47:02.274Z,3.45
2019-03-01T12:49:30.271Z,4.57
2019-03-01T12:51:58.277Z,2.30
2019-03-01T12:54:26.235Z,3.05
2019-03-01T12:56:54.415Z,2.90
2019-03-01T12:59:22.455Z,3.03
2019-03-01T13:01:50.530Z,2.20
2019-03-01T13:04:18.612Z,1.30
2019-03-01T13:06:46.345Z,3.03
2019-03-01T13:09:15.675Z,3.28
2019-03-01T13:11:44.011Z,3.42
2019-03-01T13:14:12.204Z,3.03
2019-03-01T13:16:40.262Z,3.22
2019-03-01T13:19:08.140Z,2.95
2019-03-01T13:21:36.228Z,2.95
2019-03-01T13:24:03.973Z,3.05
2019-03-01T13:26:31.887Z,3.22
2019-03-01T13:29:00.022Z,2.85
2019-03-01T13:31:28.212Z,2.50
2019-03-01T13:33:56.387Z,2.35
2019-03-01T13:36:24.329Z,2.65
2019-03-01T13:38:52.505Z,2.78
2019-03-01T13:41:20.533Z,2.15
2019-03-01T13:43:48.376Z,2.80
2019-03-01T13:46:16.522Z,2.92
2019-03-01T13:48:45.313Z,2.60
2019-03-01T13:51:13.811Z,2.62
2019-03-01T13:53:48.794Z,3.08
2019-03-01T13:56:10.810Z,2.20
2019-03-01T13:58:38.015Z,2.80
2019-03-01T14:01:06.048Z,2.75
2019-03-01T14:03:34.689Z,2.33
2019-03-01T14:06:02.532Z,2.75
2019-03-01T14:08:30.433Z,2.10
2019-03-01T14:10:58.591Z,2.17
2019-03-01T14:13:26.649Z,2.22
2019-03-01T14:15:54.972Z,2.83
2019-03-01T14:18:23.103Z,2.17
2019-03-01T14:20:54.436Z,2.72
2019-03-01T14:23:21.305Z,2.28
2019-03-01T14:25:48.231Z,2.60
2019-03-01T14:28:16.391Z,2.53
2019-03-01T14:30:44.146Z,2.40
2019-03-01T14:33:12.300Z,3.05
2019-03-01T14:35:40.408Z,2.67
2019-03-01T14:38:08.457Z,2.60
2019-03-01T14:40:37.203Z,2.42
2019-03-01T14:43:07.508Z,2.80
2019-03-01T14:45:35.638Z,2.83
2019-03-01T14:48:05.093Z,2.83
2019-03-01T14:50:33.886Z,2.80
2019-03-01T14:53:01.202Z,2.78
2019-03-01T14:55:34.115Z,2.70
2019-03-01T14:58:07.571Z,2.45
2019-03-01T15:00:37.810Z,1.85
2019-03-01T15:03:18.938Z,2.00
2019-03-01T15:05:47.134Z,2.05
2019-03-01T15:08:15.734Z,1.80
2019-03-01T15:10:43.616Z,1.87
2019-03-01T15:13:11.653Z,1.73
2019-03-01T15:15:40.311Z,2.10
2019-03-01T15:18:08.434Z,2.20
2019-03-01T15:20:36.976Z,1.95
2019-03-01T15:23:04.729Z,2.50
2019-03-01T15:25:32.629Z,2.35
2019-03-01T15:28:00.940Z,2.30
2019-03-01T15:30:31.126Z,2.45
2019-03-01T15:32:59.309Z,2.62
2019-03-01T15:35:28.765Z,4.30
2019-03-01T15:37:54.947Z,2.60
2019-03-01T15:40:23.140Z,3.17
2019-03-01T15:42:51.459Z,4.50
2019-03-01T15:45:19.358Z,3.72
2019-03-01T15:47:47.484Z,3.70
2019-03-01T15:50:15.585Z,4.18
2019-03-01T15:52:45.708Z,3.78
2019-03-01T15:55:12.897Z,3.85
2019-03-01T15:57:40.754Z,4.20
2019-03-01T16:00:09.507Z,3.83
2019-03-01T16:02:37.390Z,4.55
2019-03-01T16:05:05.859Z,5.00
2019-03-01T16:07:33.918Z,5.50
2019-03-01T16:10:02.240Z,4.93
2019-03-01T16:12:32.393Z,5.37
2019-03-01T16:15:00.475Z,5.32
2019-03-01T16:17:27.132Z,3.90
2019-03-01T16:19:55.857Z,3.90
2019-03-01T16:22:23.877Z,4.62
2019-03-01T16:24:52.007Z,4.53
2019-03-01T16:27:20.191Z,4.95
2019-03-01T16:29:48.325Z,5.87
2019-03-01T16:32:16.416Z,5.10
2019-03-01T16:34:44.838Z,5.00
2019-03-01T16:37:12.324Z,4.37
2019-03-01T16:39:40.526Z,4.72
2019-03-01T16:42:08.649Z,5.53
2019-03-01T16:44:36.775Z,6.32
2019-03-01T16:47:06.756Z,6.05
2019-03-01T16:49:33.089Z,6.40
2019-03-01T16:52:00.888Z,5.75
2019-03-01T16:54:29.573Z,5.32
2019-03-01T16:56:57.805Z,5.32
2019-03-01T16:59:27.077Z,4.25
2019-03-01T17:01:55.199Z,4.28
2019-03-01T17:04:27.105Z,3.92
2019-03-01T17:06:51.109Z,2.62
2019-03-01T17:09:19.189Z,2.40
2019-03-01T17:11:47.867Z,2.40
2019-03-01T17:14:16.097Z,2.95
2019-03-01T17:16:44.027Z,2.40
2019-03-01T17:19:12.342Z,1.40
2019-03-01T17:21:40.431Z,1.50
2019-03-01T17:24:12.143Z,2.12
2019-03-01T17:26:38.961Z,1.60
2019-03-01T17:29:05.004Z,1.50
2019-03-01T17:31:33.047Z,1.20
2019-03-01T17:34:01.165Z,1.50
2019-03-01T17:36:29.188Z,1.50
2019-03-01T17:38:57.290Z,1.87
2019-03-01T17:41:25.733Z,1.70
2019-03-01T17:43:53.658Z,1.40
2019-03-01T17:46:21.486Z,0.90
2019-03-01T17:48:49.712Z,0.70
2019-03-01T17:51:18.191Z,0.95
2019-03-01T17:53:46.490Z,1.10
2019-03-01T17:56:14.558Z,1.20
2019-03-01T17:58:42.475Z,1.15
2019-03-01T18:01:10.505Z,0.85
2019-03-01T18:03:38.554Z,0.95
2019-03-01T18:06:06.376Z,1.30
2019-03-01T18:08:35.886Z,1.00
2019-03-01T18:11:05.394Z,1.10
2019-03-01T18:13:30.758Z,1.27
2019-03-01T18:15:58.857Z,1.73
2019-03-01T18:18:27.126Z,1.17
2019-03-01T18:20:55.298Z,1.58
2019-03-01T18:23:23.866Z,1.20
2019-03-01T18:25:51.977Z,1.20
2019-03-01T18:28:20.114Z,1.08
2019-03-01T18:30:47.902Z,1.10
2019-03-01T18:33:20.779Z,1.48
2019-03-01T18:35:45.056Z,0.93
2019-03-01T18:38:12.909Z,1.25
2019-03-01T18:40:41.010Z,1.20
2019-03-01T18:43:09.810Z,1.08
2019-03-01T18:45:38.481Z,1.37
2019-03-01T18:48:08.779Z,1.45
2019-03-01T18:50:33.777Z,1.37
2019-03-01T18:53:03.574Z,1.50
2019-03-01T18:55:30.592Z,1.33
2019-03-01T18:57:58.502Z,1.30
2019-03-01T19:00:29.020Z,1.35
2019-03-01T19:02:57.431Z,1.50
2019-03-01T19:05:23.359Z,1.50
2019-03-01T19:07:51.398Z,1.50
2019-03-01T19:10:19.474Z,1.48
2019-03-01T19:12:48.607Z,1.35
2019-03-01T19:15:16.416Z,1.60
2019-03-01T19:17:44.546Z,1.75
2019-03-01T19:20:12.492Z,2.17
2019-03-01T19:22:40.563Z,1.67
2019-03-01T19:25:08.467Z,1.37
2019-03-01T19:27:36.567Z,1.60
2019-03-01T19:30:05.081Z,1.10
2019-03-01T19:32:32.840Z,1.40
2019-03-01T19:35:00.661Z,1.48
2019-03-01T19:37:28.869Z,1.70
2019-03-01T19:39:56.955Z,1.40
2019-03-01T19:42:25.608Z,2.12
2019-03-01T19:44:53.721Z,1.60
2019-03-01T19:47:23.667Z,2.10
2019-03-01T19:49:50.842Z,1.70
2019-03-01T19:52:18.727Z,1.83
2019-03-01T19:54:47.223Z,1.70
2019-03-01T19:57:15.278Z,1.62
2019-03-01T19:59:46.564Z,2.03
2019-03-01T20:02:11.942Z,1.90
2019-03-01T20:04:40.012Z,1.80
2019-03-01T20:07:08.108Z,1.48
2019-03-01T20:09:36.634Z,1.98
2019-03-01T20:12:03.977Z,1.83
2019-03-01T20:14:33.739Z,1.87
2019-03-01T20:17:00.385Z,2.40
2019-03-01T20:19:28.467Z,1.77
2019-03-01T20:21:56.558Z,2.37
2019-03-01T20:24:24.955Z,2.37
2019-03-01T20:26:53.067Z,2.42
2019-03-01T20:29:21.249Z,2.60
2019-03-01T20:31:49.519Z,2.37
2019-03-01T20:34:17.577Z,2.10
2019-03-01T20:36:45.853Z,2.08
2019-03-01T20:39:15.612Z,2.40
2019-03-01T20:41:46.367Z,2.45
2019-03-01T20:44:10.654Z,2.20
2019-03-01T20:46:40.048Z,1.90
2019-03-01T20:49:06.916Z,2.20
2019-03-01T20:51:35.009Z,2.90
2019-03-01T20:54:03.108Z,2.08
2019-03-01T20:56:31.253Z,2.35
2019-03-01T20:58:59.408Z,2.47
2019-03-01T21:01:28.198Z,2.15
2019-03-01T21:03:56.320Z,2.17
2019-03-01T21:06:24.469Z,2.35
2019-03-01T21:08:52.893Z,2.67
2019-03-01T21:11:21.787Z,2.47
2019-03-01T21:13:49.732Z,2.33
2019-03-01T21:16:17.258Z,2.97
2019-03-01T21:18:45.336Z,2.58
2019-03-01T21:21:13.252Z,3.37
2019-03-01T21:23:41.675Z,2.75
2019-03-01T21:26:11.999Z,2.35
2019-03-01T21:28:37.786Z,2.67
2019-03-01T21:31:06.164Z,2.60
2019-03-01T21:33:34.772Z,2.25
2019-03-01T21:36:02.607Z,2.50
2019-03-01T21:38:30.732Z,2.58
2019-03-01T21:40:58.815Z,2.20
2019-03-01T21:43:27.057Z,2.20
2019-03-01T21:45:55.577Z,3.00
2019-03-01T21:48:25.302Z,2.30
2019-03-01T21:50:51.311Z,2.30
2019-03-01T21:53:19.342Z,2.60
2019-03-01T21:55:47.194Z,2.53
2019-03-01T21:58:15.277Z,2.65
2019-03-01T22:00:44.084Z,2.58
2019-03-01T22:03:12.972Z,2.55
2019-03-01T22:05:45.298Z,2.92
2019-03-01T22:08:12.950Z,2.65
2019-03-01T22:10:38.913Z,3.12
2019-03-01T22:13:05.449Z,3.17
2019-03-01T22:15:34.454Z,3.00
2019-03-01T22:18:02.621Z,3.12
2019-03-01T22:20:31.195Z,3.10
2019-03-01T22:23:00.569Z,3.33
2019-03-01T22:25:29.214Z,3.10
2019-03-01T22:27:57.742Z,3.30
2019-03-01T22:30:26.771Z,3.08
2019-03-01T22:32:57.822Z,3.20
2019-03-01T22:35:25.690Z,3.80
2019-03-01T22:37:56.788Z,3.28
2019-03-01T22:40:28.064Z,2.92
2019-03-01T22:42:53.440Z,2.80
2019-03-01T22:45:21.546Z,2.50
2019-03-01T22:47:49.676Z,2.30
2019-03-01T22:50:17.449Z,2.78
2019-03-01T22:52:45.934Z,2.75
2019-03-01T22:55:14.823Z,2.60
2019-03-01T22:57:44.761Z,2.17
2019-03-01T23:00:49.488Z,2.28
2019-03-01T23:03:18.755Z,2.28
2019-03-01T23:05:46.328Z,2.87
2019-03-01T23:08:14.472Z,3.12
2019-03-01T23:10:42.558Z,3.00
2019-03-01T23:13:10.916Z,3.55
2019-03-01T23:15:39.457Z,3.58
2019-03-01T23:18:07.400Z,3.90
2019-03-01T23:20:35.200Z,4.57
2019-03-01T23:23:03.740Z,4.95
2019-03-01T23:25:31.901Z,4.68
2019-03-01T23:27:59.672Z,4.37
2019-03-01T23:30:29.110Z,5.47
2019-03-01T23:32:56.240Z,5.00
2019-03-01T23:35:24.329Z,6.00
2019-03-01T23:37:52.469Z,6.30
2019-03-01T23:40:20.439Z,5.95
2019-03-01T23:42:48.204Z,6.43
2019-03-01T23:45:17.427Z,6.32
2019-03-01T23:47:45.095Z,6.43
2019-03-01T23:50:13.338Z,6.75
2019-03-01T23:52:41.436Z,6.65
2019-03-01T23:55:10.099Z,6.45
2019-03-01T23:57:40.733Z,7.97
